Time;durP1;ratioP1;P1;durP2;ratioP2;P2;SDS_P1;SDS_P2;PMS_P1;PMS_P2;Temp;Humidity;BMP_temperature;BMP_pressure;BME280_temperature;BME280_humidity;BME280_pressure;Samples;Min_cycle;Max_cycle;Signal;HPM_P1;HPM_P2
2022/06/15 00:02:02;;;;;;;;;16.20;11.00;;;;;21.45;37.98;99796.94;5101060;27;8860;-77
2022/06/15 00:04:31;;;;;;;;;10.40;10.40;;;;;21.37;38.08;99793.72;5129549;27;8880;-78
2022/06/15 00:07:00;;;;;;;;;11.40;11.40;;;;;21.36;38.06;99792.00;5111340;27;8874;-80
2022/06/15 00:09:29;;;;;;;;;7.80;7.80;;;;;21.25;38.50;99789.81;5060460;27;9709;-79
2022/06/15 00:11:57;;;;;;;;;12.00;12.00;;;;;21.14;39.05;99787.56;5112260;27;8845;-80
2022/06/15 00:14:29;;;;;;;;;7.60;6.40;;;;;21.13;38.33;99784.97;5111558;27;8849;-78
2022/06/15 00:16:57;;;;;;;;;11.60;10.80;;;;;20.77;39.93;99793.44;5124782;27;9589;-77
2022/06/15 00:19:28;;;;;;;;;10.40;10.40;;;;;20.67;40.14;99785.00;5105806;27;8873;-80
2022/06/15 00:21:56;;;;;;;;;12.40;11.40;;;;;20.70;40.41;99794.59;5129790;27;8954;-80
2022/06/15 00:24:25;;;;;;;;;12.20;10.80;;;;;20.87;42.00;99800.16;5094972;27;9026;-79
2022/06/15 00:26:54;;;;;;;;;11.40;11.40;;;;;20.99;42.32;99794.34;5126331;27;8928;-79
2022/06/15 00:29:23;;;;;;;;;9.00;9.00;;;;;21.07;41.26;99793.19;5132502;27;8977;-78
2022/06/15 00:31:51;;;;;;;;;12.20;11.40;;;;;20.99;40.63;99799.66;5115500;27;8847;-80
2022/06/15 00:34:20;;;;;;;;;13.60;12.20;;;;;20.94;41.78;99793.66;5132330;27;8847;-77
2022/06/15 00:36:50;;;;;;;;;11.40;11.40;;;;;20.75;41.35;99790.84;5099247;28;8839;-78
2022/06/15 00:39:18;;;;;;;;;8.40;8.40;;;;;20.69;41.47;99795.53;5108878;27;8970;-79
2022/06/15 00:41:47;;;;;;;;;12.00;10.80;;;;;20.46;41.73;99799.88;5133231;27;8848;-78
2022/06/15 00:44:35;;;;;;;;;12.00;11.40;;;;;20.24;42.32;99800.69;5151285;27;8843;-79
2022/06/15 00:47:11;;;;;;;;;12.60;12.60;;;;;20.13;43.10;99800.22;5150659;27;8974;-80
2022/06/15 00:49:45;;;;;;;;;14.80;11.40;;;;;20.24;43.65;99805.09;5132260;27;8854;-79
2022/06/15 00:52:18;;;;;;;;;14.20;12.80;;;;;20.36;42.35;99809.06;5097639;27;8875;-78
2022/06/15 00:54:50;;;;;;;;;15.20;14.60;;;;;20.48;43.73;99802.50;5107169;27;8927;-80
2022/06/15 00:57:20;;;;;;;;;16.20;16.20;;;;;20.55;45.37;99799.56;5080718;27;9103;-78
2022/06/15 00:59:54;;;;;;;;;18.40;16.60;;;;;20.62;45.93;99800.19;5133572;27;8831;-81
2022/06/15 01:02:23;;;;;;;;;18.80;17.20;;;;;20.66;46.48;99801.81;5144768;27;8835;-81
2022/06/15 01:04:57;;;;;;;;;14.00;14.00;;;;;20.72;46.01;99798.94;5087407;27;8843;-81
2022/06/15 01:07:38;;;;;;;;;18.20;16.80;;;;;20.75;45.80;99795.31;5121479;27;8861;-79
2022/06/15 01:10:16;;;;;;;;;20.40;16.60;;;;;20.77;45.56;99798.75;5139158;27;8823;-78
2022/06/15 01:12:58;;;;;;;;;14.80;14.40;;;;;20.77;45.69;99796.09;5075205;28;8820;-78
2022/06/15 01:15:40;;;;;;;;;16.80;15.20;;;;;20.76;45.58;99803.19;5038238;28;8844;-79
2022/06/15 01:18:21;;;;;;;;;15.80;15.80;;;;;20.76;45.78;99803.19;5049800;28;8864;-78
2022/06/15 01:20:59;;;;;;;;;16.00;15.60;;;;;20.73;45.69;99798.00;5069416;28;8843;-80
2022/06/15 01:24:01;;;;;;;;;18.00;18.00;;;;;20.71;45.67;99797.19;5069435;28;8957;-77
2022/06/15 01:27:03;;;;;;;;;16.60;16.20;;;;;20.68;45.82;99801.75;5006642;28;8877;-80
2022/06/15 01:29:58;;;;;;;;;15.20;15.20;;;;;20.62;45.25;99801.09;5005418;28;9032;-79
2022/06/15 01:32:32;;;;;;;;;14.40;14.40;;;;;20.56;45.81;99809.22;4994149;28;9020;-80
2022/06/15 01:35:08;;;;;;;;;17.40;15.20;;;;;20.50;45.76;99809.44;4970547;28;8919;-78
2022/06/15 01:37:47;;;;;;;;;17.20;17.00;;;;;20.48;45.68;99800.69;4970881;28;8859;-78
2022/06/15 01:40:20;;;;;;;;;14.40;13.40;;;;;20.43;46.14;99810.59;4971015;28;8910;-78
2022/06/15 01:42:56;;;;;;;;;14.00;14.00;;;;;20.39;46.03;99804.53;4971393;28;8851;-78
2022/06/15 01:45:31;;;;;;;;;16.20;15.20;;;;;20.30;46.00;99804.00;5009606;28;8904;-77
2022/06/15 01:48:06;;;;;;;;;17.80;16.20;;;;;20.24;46.15;99807.75;4993001;28;8858;-78
2022/06/15 01:50:39;;;;;;;;;17.20;17.20;;;;;20.21;46.19;99808.72;4992697;28;8850;-80
2022/06/15 01:53:14;;;;;;;;;21.60;17.40;;;;;20.18;46.16;99808.84;4992848;28;9746;-81
2022/06/15 01:55:49;;;;;;;;;14.60;13.80;;;;;20.14;46.64;99803.72;4989465;28;8860;-83
2022/06/15 01:58:22;;;;;;;;;17.20;16.60;;;;;20.08;46.30;99802.16;4989576;28;8883;-78
2022/06/15 02:00:57;;;;;;;;;19.80;17.00;;;;;20.04;46.10;99804.03;5008651;28;8869;-77
2022/06/15 02:03:35;;;;;;;;;17.60;17.60;;;;;20.01;46.88;99811.22;5027110;28;8890;-80
2022/06/15 02:06:11;;;;;;;;;14.80;14.60;;;;;19.99;46.43;99805.13;5002577;28;8878;-80
2022/06/15 02:08:50;;;;;;;;;16.40;16.40;;;;;19.95;46.72;99798.22;5045155;28;8853;-79
2022/06/15 02:11:24;;;;;;;;;11.40;11.20;;;;;19.92;47.07;99808.88;5012651;28;8856;-78
2022/06/15 02:14:00;;;;;;;;;16.80;16.80;;;;;19.87;47.02;99811.72;4997589;28;8868;-74
2022/06/15 02:16:34;;;;;;;;;16.80;15.80;;;;;19.84;46.97;99806.50;5044390;28;8972;-74
2022/06/15 02:19:13;;;;;;;;;14.40;14.40;;;;;19.78;46.68;99807.59;5046698;28;8861;-78
2022/06/15 02:21:46;;;;;;;;;14.60;13.80;;;;;19.74;46.86;99805.97;5023107;28;8898;-78
2022/06/15 02:24:21;;;;;;;;;14.60;14.60;;;;;19.72;46.65;99810.44;5035040;28;8958;-78
2022/06/15 02:26:51;;;;;;;;;16.80;16.80;;;;;19.70;46.69;99809.59;5034807;28;8860;-78
2022/06/15 02:29:25;;;;;;;;;21.40;20.60;;;;;19.66;46.58;99805.34;5035150;28;9444;-79
2022/06/15 02:31:58;;;;;;;;;29.75;27.75;;;;;19.37;47.06;99815.06;5067253;28;8867;-78
2022/06/15 02:34:27;;;;;;;;;19.00;18.40;;;;;19.02;47.53;99821.50;5025513;28;8830;-78
2022/06/15 02:36:56;;;;;;;;;15.20;14.00;;;;;18.70;48.43;99820.66;5031023;28;8850;-78
2022/06/15 02:39:25;;;;;;;;;17.00;16.60;;;;;18.79;48.46;99820.38;5014714;28;9725;-78
2022/06/15 02:42:00;;;;;;;;;14.00;13.60;;;;;18.86;47.86;99821.94;5044611;28;8844;-78
2022/06/15 02:44:34;;;;;;;;;17.20;16.80;;;;;18.93;47.75;99825.28;5088841;28;8851;-77
2022/06/15 02:47:05;;;;;;;;;15.60;14.80;;;;;18.99;47.93;99825.09;5054754;28;8935;-77
2022/06/15 02:49:35;;;;;;;;;16.60;15.80;;;;;19.03;47.85;99817.94;5053904;28;8828;-79
2022/06/15 02:52:07;;;;;;;;;16.00;16.00;;;;;19.08;47.78;99819.53;5071565;28;8870;-78
2022/06/15 02:54:47;;;;;;;;;16.40;14.80;;;;;19.13;47.62;99824.69;5071716;28;8847;-79
2022/06/15 02:57:22;;;;;;;;;15.60;15.20;;;;;19.15;47.51;99821.97;5054876;28;8844;-79
2022/06/15 02:59:52;;;;;;;;;13.80;13.00;;;;;19.16;47.80;99824.56;5005924;28;8856;-79
2022/06/15 03:02:27;;;;;;;;;18.80;18.00;;;;;19.19;47.87;99827.13;5059501;28;8923;-80
2022/06/15 03:04:56;;;;;;;;;16.40;16.40;;;;;19.21;47.97;99822.66;5056371;28;8860;-79
2022/06/15 03:07:26;;;;;;;;;23.20;21.80;;;;;19.23;47.54;99833.19;5085135;28;8902;-79
2022/06/15 03:09:57;;;;;;;;;20.60;17.20;;;;;19.27;47.65;99824.22;5093120;28;8827;-77
2022/06/15 03:12:26;;;;;;;;;14.60;14.00;;;;;19.29;47.06;99828.56;5067991;28;8853;-78
2022/06/15 03:14:55;;;;;;;;;15.20;12.60;;;;;19.33;47.20;99836.41;5035308;28;8846;-78
2022/06/15 03:17:25;;;;;;;;;13.00;13.00;;;;;19.35;47.02;99839.84;5087292;28;8847;-77
2022/06/15 03:19:58;;;;;;;;;13.40;13.40;;;;;19.39;47.24;99846.78;5072850;28;9604;-79
2022/06/15 03:22:28;;;;;;;;;14.20;14.20;;;;;19.40;47.33;99846.72;5025933;28;8959;-78
2022/06/15 03:24:59;;;;;;;;;14.00;13.00;;;;;19.45;47.26;99838.63;5090671;28;8850;-79
2022/06/15 03:27:28;;;;;;;;;13.00;12.80;;;;;19.48;47.08;99843.84;5039506;28;8873;-77
2022/06/15 03:30:04;;;;;;;;;47.00;39.25;;;;;19.53;46.78;99846.31;5071526;28;8845;-78
2022/06/15 03:32:41;;;;;;;;;20.20;20.00;;;;;19.60;46.59;99847.84;5035599;28;9086;-81
2022/06/15 03:35:11;;;;;;;;;17.80;16.00;;;;;19.65;46.45;99840.63;5052419;28;8934;-80
2022/06/15 03:37:40;;;;;;;;;38.75;33.75;;;;;19.74;46.21;99852.75;5001437;28;8873;-78
2022/06/15 03:40:32;;;;;;;;;46.75;39.00;;;;;19.81;46.07;99847.19;5067413;28;9591;-77
2022/06/15 03:43:00;;;;;;;;;41.50;34.50;;;;;19.86;46.35;99841.72;5073890;28;8909;-81
2022/06/15 03:45:31;;;;;;;;;28.00;23.80;;;;;19.93;45.98;99847.69;5046630;28;8850;-79
2022/06/15 03:48:02;;;;;;;;;17.20;16.40;;;;;20.02;46.21;99850.03;5014297;28;8861;-78
2022/06/15 03:50:35;;;;;;;;;19.00;17.20;;;;;20.00;45.90;99849.19;5030341;28;8880;-80
2022/06/15 03:53:06;;;;;;;;;12.60;12.40;;;;;20.05;46.21;99855.19;5046998;28;8927;-77
2022/06/15 03:55:40;;;;;;;;;16.00;16.00;;;;;20.08;46.13;99851.59;5061992;28;9602;-78
2022/06/15 03:58:15;;;;;;;;;13.40;13.00;;;;;20.11;45.65;99859.41;5051662;28;8847;-79
2022/06/15 04:00:46;;;;;;;;;17.60;17.60;;;;;20.15;45.92;99861.03;5052881;28;8856;-78
2022/06/15 04:03:18;;;;;;;;;57.25;45.00;;;;;20.12;45.79;99862.00;5069366;28;8937;-78
2022/06/15 04:05:55;;;;;;;;;45.25;39.25;;;;;20.20;45.78;99857.31;5050462;28;8834;-79
2022/06/15 04:08:38;;;;;;;;;18.40;17.60;;;;;20.10;45.46;99863.84;5033241;28;8862;-78
2022/06/15 04:11:58;;;;;;;;;24.00;21.40;;;;;20.21;45.31;99869.66;5015514;28;8858;-80
2022/06/15 04:14:30;;;;;;;;;31.60;30.00;;;;;20.28;45.21;99864.97;5046431;28;8873;-79
2022/06/15 04:17:18;;;;;;;;;16.80;16.00;;;;;20.43;44.60;99866.22;5046452;28;8853;-79
2022/06/15 04:20:33;;;;;;;;;16.20;15.80;;;;;20.50;43.87;99870.38;5007652;28;8862;-78
2022/06/15 04:23:12;;;;;;;;;17.20;15.60;;;;;20.61;43.94;99870.03;4999996;28;8863;-80
2022/06/15 04:25:44;;;;;;;;;14.80;13.40;;;;;20.73;43.43;99876.66;4993172;28;8876;-79
2022/06/15 04:28:16;;;;;;;;;17.80;17.40;;;;;20.80;43.05;99876.38;5025921;28;8861;-79
2022/06/15 04:30:47;;;;;;;;;17.60;16.40;;;;;20.93;42.80;99878.56;5005110;28;8871;-78
2022/06/15 04:33:16;;;;;;;;;16.00;16.00;;;;;20.98;43.05;99882.78;5007278;28;8894;-78
2022/06/15 04:35:46;;;;;;;;;18.20;18.20;;;;;21.08;42.91;99883.28;5007011;28;8859;-80
2022/06/15 04:38:18;;;;;;;;;17.60;16.60;;;;;21.19;43.10;99873.13;5018358;28;8871;-80
2022/06/15 04:41:02;;;;;;;;;14.00;14.00;;;;;21.31;42.62;99874.44;5009935;28;8982;-79
2022/06/15 04:43:33;;;;;;;;;15.20;15.20;;;;;21.41;42.47;99877.56;5025818;28;8898;-78
2022/06/15 04:46:03;;;;;;;;;17.00;15.00;;;;;21.41;42.26;99873.13;5005805;28;8977;-80
2022/06/15 04:48:33;;;;;;;;;16.00;16.00;;;;;21.33;42.57;99875.22;5006395;28;8865;-79
2022/06/15 04:51:12;;;;;;;;;21.00;17.80;;;;;21.32;42.97;99878.81;5013408;28;8855;-78
2022/06/15 04:53:46;;;;;;;;;16.40;16.20;;;;;21.52;42.25;99872.75;5016606;28;9629;-78
2022/06/15 04:56:15;;;;;;;;;16.40;16.40;;;;;21.66;41.84;99880.13;5043996;28;8874;-78
2022/06/15 04:58:44;;;;;;;;;15.60;14.60;;;;;21.58;42.25;99880.44;5065529;28;8869;-78
2022/06/15 05:01:14;;;;;;;;;17.60;17.00;;;;;21.43;42.10;99886.34;5016356;28;8858;-78
2022/06/15 05:03:44;;;;;;;;;15.80;15.80;;;;;21.38;42.69;99885.69;4998835;28;8885;-79
2022/06/15 05:06:32;;;;;;;;;15.60;15.20;;;;;21.01;43.22;99887.09;4993204;28;8860;-79
2022/06/15 05:09:02;;;;;;;;;16.80;16.40;;;;;20.97;43.42;99885.50;5050580;28;8870;-78
2022/06/15 05:11:31;;;;;;;;;15.80;14.60;;;;;21.17;42.92;99884.72;5070684;28;8859;-79
2022/06/15 05:14:00;;;;;;;;;16.20;16.20;;;;;21.26;43.11;99880.84;5061538;28;8846;-80
2022/06/15 05:16:34;;;;;;;;;22.00;19.00;;;;;21.30;43.35;99883.31;5039412;28;8865;-79
2022/06/15 05:19:02;;;;;;;;;15.00;15.00;;;;;21.31;42.77;99882.38;5020926;28;8994;-79
2022/06/15 05:21:59;;;;;;;;;18.00;16.00;;;;;21.37;42.73;99884.78;5047031;28;8874;-79
2022/06/15 05:24:31;;;;;;;;;17.60;17.20;;;;;21.47;42.25;99876.50;5051851;28;8943;-80
2022/06/15 05:27:03;;;;;;;;;16.40;15.80;;;;;21.67;42.42;99876.56;5038618;28;8968;-79
2022/06/15 05:29:31;;;;;;;;;13.40;12.80;;;;;21.87;41.63;99881.06;5073915;28;9618;-79
2022/06/15 05:32:11;;;;;;;;;16.00;15.20;;;;;21.85;41.64;99876.72;5107162;28;8963;-79
2022/06/15 05:34:40;;;;;;;;;16.60;16.00;;;;;22.05;40.68;99870.59;5089092;28;8868;-81
2022/06/15 05:37:10;;;;;;;;;17.40;16.20;;;;;21.85;41.16;99882.03;5105427;28;8837;-80
2022/06/15 05:39:40;;;;;;;;;16.60;15.60;;;;;21.98;41.39;99878.81;5109507;28;8861;-80
2022/06/15 05:42:10;;;;;;;;;15.80;13.80;;;;;22.15;41.55;99872.75;5124255;27;9706;-81
2022/06/15 05:44:48;;;;;;;;;20.80;18.80;;;;;22.26;40.99;99879.44;5079810;28;8943;-80
2022/06/15 05:47:17;;;;;;;;;28.00;26.20;;;;;22.05;40.68;99874.09;5108097;28;8845;-79
2022/06/15 05:50:03;;;;;;;;;17.60;16.60;;;;;21.90;41.01;99882.72;5123176;27;8879;-79
2022/06/15 05:52:42;;;;;;;;;17.40;15.60;;;;;22.10;40.64;99880.09;5085146;28;8841;-79
2022/06/15 05:55:11;;;;;;;;;28.50;26.75;;;;;21.58;41.50;99879.59;5091547;28;8864;-75
2022/06/15 05:57:40;;;;;;;;;28.20;23.80;;;;;21.16;41.75;99880.34;5108378;28;9013;-75
2022/06/15 06:00:10;;;;;;;;;16.40;15.20;;;;;21.48;40.99;99881.75;5125974;27;8853;-73
2022/06/15 06:02:41;;;;;;;;;16.00;14.80;;;;;20.94;42.70;99893.53;5129077;27;8944;-76
2022/06/15 06:05:10;;;;;;;;;14.40;13.00;;;;;21.16;42.72;99886.50;5078860;27;8849;-75
2022/06/15 06:07:39;;;;;;;;;13.40;13.20;;;;;21.48;41.91;99888.84;5128728;27;8847;-78
2022/06/15 06:10:10;;;;;;;;;15.60;15.60;;;;;21.86;41.31;99887.28;5128908;27;8866;-74
2022/06/15 06:12:39;;;;;;;;;15.20;14.00;;;;;21.78;40.70;99890.25;5110669;27;8932;-75
2022/06/15 06:15:08;;;;;;;;;15.20;15.20;;;;;22.03;41.32;99894.53;5107967;28;9633;-75
2022/06/15 06:17:36;;;;;;;;;12.80;12.80;;;;;21.34;40.86;99900.84;5098042;27;8815;-76
2022/06/15 06:20:06;;;;;;;;;13.40;13.40;;;;;20.93;41.97;99900.66;5124022;27;8861;-75
2022/06/15 06:22:35;;;;;;;;;13.00;13.00;;;;;21.30;41.48;99901.88;5107521;28;9023;-75
2022/06/15 06:25:04;;;;;;;;;12.40;12.40;;;;;21.67;41.24;99897.78;5090365;28;8834;-76
2022/06/15 06:27:35;;;;;;;;;14.60;14.60;;;;;21.65;41.27;99896.16;5055350;28;9620;-75
2022/06/15 06:30:05;;;;;;;;;14.00;12.60;;;;;21.47;42.34;99905.69;5050953;28;8861;-75
2022/06/15 06:32:34;;;;;;;;;14.60;14.60;;;;;21.01;42.83;99903.00;5054008;28;8857;-75
2022/06/15 06:35:02;;;;;;;;;14.40;14.40;;;;;21.12;42.81;99902.59;5086919;28;9022;-73
2022/06/15 06:37:35;;;;;;;;;18.60;18.60;;;;;21.09;43.65;99906.22;5089170;28;8888;-70
2022/06/15 06:40:06;;;;;;;;;13.80;13.80;;;;;21.13;42.70;99909.63;5089899;28;8841;-71
2022/06/15 06:42:36;;;;;;;;;15.20;14.20;;;;;21.55;42.06;99908.88;5064195;28;8835;-70
2022/06/15 06:45:05;;;;;;;;;19.00;17.40;;;;;21.43;42.87;99904.91;5103207;28;9657;-71
2022/06/15 06:47:34;;;;;;;;;15.40;15.00;;;;;21.72;41.93;99898.47;5089345;28;9665;-69
2022/06/15 06:50:02;;;;;;;;;15.20;14.60;;;;;21.77;40.80;99900.94;5053228;28;8857;-70
2022/06/15 06:52:31;;;;;;;;;17.00;12.60;;;;;21.84;40.63;99905.06;5093509;28;9736;-80
2022/06/15 06:55:00;;;;;;;;;13.00;11.40;;;;;22.12;38.70;99901.28;5099932;28;8863;-80
2022/06/15 06:57:29;;;;;;;;;18.40;18.20;;;;;22.27;39.81;99899.75;5018641;28;8852;-81
2022/06/15 06:59:59;;;;;;;;;12.80;12.20;;;;;22.68;39.54;99900.59;5071717;28;9035;-79
2022/06/15 07:02:28;;;;;;;;;13.20;11.80;;;;;22.71;37.77;99897.81;5088562;28;8825;-80
2022/06/15 07:04:56;;;;;;;;;12.00;10.40;;;;;22.98;37.34;99895.66;5088093;28;8884;-80
2022/06/15 07:07:25;;;;;;;;;13.80;13.80;;;;;23.21;37.00;99892.91;5067744;28;8831;-80
2022/06/15 07:09:54;;;;;;;;;15.80;15.80;;;;;23.21;36.39;99895.56;5106692;27;8857;-79
2022/06/15 07:12:22;;;;;;;;;10.00;9.40;;;;;23.15;35.90;99892.25;5118758;27;8839;-79
2022/06/15 07:14:51;;;;;;;;;10.80;10.80;;;;;23.26;35.36;99890.91;5125569;27;8872;-80
2022/06/15 07:17:21;;;;;;;;;12.40;10.20;;;;;23.34;35.49;99904.69;5123501;27;8858;-78
2022/06/15 07:19:50;;;;;;;;;11.20;9.80;;;;;23.64;35.29;99891.72;5133282;27;8854;-79
2022/06/15 07:22:19;;;;;;;;;11.80;11.60;;;;;23.80;35.01;99894.53;5106499;28;8893;-78
2022/06/15 07:24:48;;;;;;;;;11.00;8.80;;;;;23.13;35.04;99894.13;5101204;27;8854;-77
2022/06/15 07:27:17;;;;;;;;;7.40;6.60;;;;;22.42;34.88;99900.88;5066725;27;9577;-77
2022/06/15 07:29:46;;;;;;;;;10.20;10.20;;;;;22.56;35.31;99899.34;5115793;27;8982;-81
2022/06/15 07:32:17;;;;;;;;;9.40;9.20;;;;;22.98;35.46;99898.34;5107650;28;8863;-79
2022/06/15 07:34:48;;;;;;;;;8.80;8.80;;;;;23.41;35.73;99900.81;5099561;27;8862;-80
2022/06/15 07:37:17;;;;;;;;;9.80;9.40;;;;;23.69;34.25;99902.16;5129473;27;8888;-78
2022/06/15 07:40:07;;;;;;;;;8.00;7.00;;;;;24.10;34.29;99889.47;5106144;27;8947;-82
2022/06/15 07:42:36;;;;;;;;;9.60;9.60;;;;;24.44;34.34;99892.16;5098055;27;8855;-81
2022/06/15 07:45:06;;;;;;;;;10.40;10.20;;;;;24.51;33.22;99880.25;5115109;27;8954;-79
2022/06/15 07:50:22;;;;;;;;;11.00;10.60;;;;;25.13;32.64;99885.81;5101859;27;8849;-79
2022/06/15 07:53:03;;;;;;;;;10.40;7.80;;;;;25.38;31.59;99888.00;5107741;27;8855;-77
2022/06/15 07:55:36;;;;;;;;;7.20;7.20;;;;;25.62;31.10;99888.41;5116997;27;8832;-78
2022/06/15 07:58:05;;;;;;;;;7.80;7.80;;;;;25.86;30.95;99888.81;5150049;27;8850;-76
2022/06/15 08:00:37;;;;;;;;;10.20;9.00;;;;;25.66;30.04;99881.94;5150460;27;8844;-77
2022/06/15 08:03:06;;;;;;;;;9.60;8.00;;;;;24.33;31.67;99882.94;5097883;27;8940;-76
2022/06/15 08:05:41;;;;;;;;;6.00;4.40;;;;;23.98;32.16;99883.88;5080088;27;8874;-77
2022/06/15 08:08:13;;;;;;;;;8.20;7.80;;;;;23.91;32.71;99894.84;5109068;27;8841;-77
2022/06/15 08:10:41;;;;;;;;;7.40;7.40;;;;;23.72;32.95;99894.88;5072442;28;8847;-78
2022/06/15 08:13:10;;;;;;;;;9.40;9.00;;;;;24.09;32.71;99889.53;5149586;27;8840;-78
2022/06/15 08:15:41;;;;;;;;;5.40;5.00;;;;;24.54;31.79;99898.78;5131744;27;8867;-72
2022/06/15 08:18:12;;;;;;;;;9.00;8.20;;;;;24.76;32.01;99890.47;5131182;27;8847;-72
2022/06/15 08:20:47;;;;;;;;;9.00;9.00;;;;;25.08;31.50;99891.41;5150074;27;9596;-72
2022/06/15 08:23:20;;;;;;;;;9.80;8.80;;;;;25.12;30.48;99899.25;5079208;28;8881;-73
2022/06/15 08:25:52;;;;;;;;;8.80;8.60;;;;;25.34;30.42;99904.28;5104290;27;8851;-72
2022/06/15 08:28:22;;;;;;;;;6.20;6.20;;;;;25.57;29.30;99900.31;5137014;27;8846;-73
2022/06/15 08:30:53;;;;;;;;;7.40;7.00;;;;;25.55;29.45;99899.53;5135889;27;8880;-73
2022/06/15 08:33:23;;;;;;;;;9.00;8.20;;;;;24.81;29.67;99899.09;5137646;27;8873;-73
2022/06/15 08:35:53;;;;;;;;;9.20;9.00;;;;;25.17;29.82;99899.84;5149569;27;8870;-73
2022/06/15 08:38:24;;;;;;;;;9.20;9.00;;;;;25.37;29.62;99899.63;5149752;27;8867;-72
2022/06/15 08:40:56;;;;;;;;;11.80;10.00;;;;;25.00;29.96;99896.31;5130236;27;8851;-72
2022/06/15 08:43:39;;;;;;;;;7.20;7.20;;;;;24.03;31.32;99905.84;5149722;27;8914;-72
2022/06/15 08:46:18;;;;;;;;;11.80;11.80;;;;;23.69;33.20;99905.66;5108253;28;8885;-74
2022/06/15 08:49:02;;;;;;;;;10.40;10.40;;;;;23.46;34.06;99904.13;5119725;27;8831;-70
2022/06/15 08:51:38;;;;;;;;;9.80;9.20;;;;;23.87;33.22;99900.41;5149583;27;9062;-69
2022/06/15 08:54:12;;;;;;;;;12.00;12.00;;;;;24.23;32.51;99886.16;5149383;27;9685;-69
2022/06/15 08:56:44;;;;;;;;;10.00;10.00;;;;;24.45;32.53;99893.91;5135306;27;9761;-70
2022/06/15 08:59:20;;;;;;;;;10.80;10.80;;;;;23.82;32.63;99886.44;5119049;27;8815;-70
2022/06/15 09:01:56;;;;;;;;;10.80;9.80;;;;;24.31;32.72;99883.97;5075347;27;8861;-69
2022/06/15 09:04:35;;;;;;;;;10.00;10.00;;;;;23.89;33.17;99894.06;5125441;27;8877;-70
2022/06/15 09:07:18;;;;;;;;;10.80;10.40;;;;;23.83;33.04;99877.53;5115168;27;8851;-70
2022/06/15 09:10:29;;;;;;;;;11.60;11.60;;;;;23.20;34.12;99894.72;5146327;27;8828;-70
2022/06/15 09:13:09;;;;;;;;;12.20;12.20;;;;;23.18;35.02;99890.41;5132454;27;8841;-70
2022/06/15 09:15:47;;;;;;;;;10.80;9.00;;;;;22.87;34.92;99898.00;5122083;28;8816;-69
2022/06/15 09:18:22;;;;;;;;;9.40;8.80;;;;;23.21;34.63;99888.44;5106770;28;8855;-69
2022/06/15 09:20:55;;;;;;;;;11.00;10.40;;;;;23.09;35.37;99889.91;5155351;27;8843;-71
2022/06/15 09:23:32;;;;;;;;;7.60;7.60;;;;;23.58;35.27;99885.84;5124812;27;8883;-68
2022/06/15 09:26:06;;;;;;;;;9.80;9.00;;;;;24.04;33.92;99897.75;5124034;27;8855;-69
2022/06/15 09:28:40;;;;;;;;;9.20;9.20;;;;;24.45;32.54;99891.22;5112477;27;8827;-70
2022/06/15 09:31:14;;;;;;;;;11.80;11.40;;;;;24.76;31.89;99889.63;5136174;27;8840;-71
2022/06/15 09:33:48;;;;;;;;;7.00;7.00;;;;;24.18;31.10;99885.50;5061092;28;8871;-69
2022/06/15 09:36:22;;;;;;;;;9.20;8.00;;;;;24.01;32.03;99895.25;5114386;27;8833;-69
2022/06/15 09:38:51;;;;;;;;;9.00;8.80;;;;;23.89;31.49;99885.19;5127664;27;8846;-68
2022/06/15 09:41:25;;;;;;;;;8.60;8.60;;;;;24.18;30.40;99890.84;5112778;27;8857;-68
2022/06/15 09:44:10;;;;;;;;;9.80;9.20;;;;;24.30;32.28;99882.22;5099465;27;8871;-72
2022/06/15 09:47:08;;;;;;;;;10.60;10.60;;;;;24.79;32.86;99882.31;5077416;28;8843;-69
2022/06/15 09:49:47;;;;;;;;;9.00;8.00;;;;;24.86;31.82;99882.88;5110953;28;8844;-69
2022/06/15 09:52:27;;;;;;;;;12.40;12.40;;;;;25.20;31.58;99881.88;5121523;27;8890;-69
2022/06/15 09:55:07;;;;;;;;;8.20;8.20;;;;;25.30;30.97;99884.91;5152292;27;8997;-70
2022/06/15 09:57:39;;;;;;;;;11.80;11.00;;;;;25.45;31.20;99884.03;5152807;27;8963;-67
2022/06/15 10:00:11;;;;;;;;;11.00;11.00;;;;;25.71;31.58;99876.34;5152864;27;8938;-68
2022/06/15 10:02:44;;;;;;;;;6.20;6.20;;;;;25.97;31.85;99876.66;5152461;27;8847;-69
2022/06/15 10:05:22;;;;;;;;;10.80;9.20;;;;;26.13;29.93;99873.94;5152508;27;8859;-67
2022/06/15 10:07:53;;;;;;;;;10.40;9.80;;;;;25.32;30.29;99875.00;5096003;27;8843;-67
2022/06/15 10:10:27;;;;;;;;;11.40;10.80;;;;;25.76;31.25;99870.72;5141153;27;8951;-68
2022/06/15 10:13:02;;;;;;;;;17.00;17.00;;;;;26.05;29.56;99877.06;5151702;27;8835;-66
2022/06/15 10:15:35;;;;;;;;;9.00;9.00;;;;;26.09;28.79;99877.72;5125017;27;8871;-67
2022/06/15 10:18:20;;;;;;;;;9.00;8.40;;;;;26.25;27.75;99867.84;5151416;27;8891;-68
2022/06/15 10:21:04;;;;;;;;;8.40;8.40;;;;;24.87;30.42;99879.25;5152078;27;8843;-72
2022/06/15 10:23:41;;;;;;;;;10.40;9.40;;;;;24.23;31.21;99865.69;5115345;27;8878;-69
2022/06/15 10:26:25;;;;;;;;;10.60;9.60;;;;;24.22;31.95;99868.44;5152226;27;9794;-70
2022/06/15 10:28:54;;;;;;;;;9.80;9.80;;;;;24.81;31.79;99860.91;5152391;27;8938;-74
2022/06/15 10:31:27;;;;;;;;;10.20;10.00;;;;;25.13;30.87;99859.13;5152078;27;8909;-69
2022/06/15 10:33:57;;;;;;;;;13.00;11.80;;;;;25.45;30.51;99853.81;5132787;27;8835;-69
2022/06/15 10:36:31;;;;;;;;;8.20;8.20;;;;;25.47;30.44;99854.59;5152688;27;8815;-69
2022/06/15 10:39:04;;;;;;;;;8.80;8.00;;;;;25.83;31.07;99856.91;5152342;27;8847;-69
2022/06/15 10:42:00;;;;;;;;;11.40;10.20;;;;;26.24;29.91;99855.44;5107820;27;10003;-72
2022/06/15 10:44:32;;;;;;;;;10.00;9.00;;;;;26.43;29.70;99855.19;5152171;27;8827;-72
2022/06/15 10:47:05;;;;;;;;;13.00;11.40;;;;;26.69;29.28;99855.38;5152235;27;8843;-69
2022/06/15 10:49:41;;;;;;;;;8.00;7.00;;;;;25.88;28.94;99857.50;5147639;27;10241;-70
2022/06/15 10:52:19;;;;;;;;;10.20;9.60;;;;;25.87;27.96;99858.44;5129907;27;8977;-69
2022/06/15 11:03:21;;;;;;;;;10.40;10.40;;;;;25.83;28.61;99840.03;5131204;27;8865;-70
2022/06/15 11:05:55;;;;;;;;;10.60;10.60;;;;;25.64;28.46;99843.78;5135619;27;8858;-71
2022/06/15 11:08:26;;;;;;;;;10.40;10.40;;;;;25.25;29.19;99841.59;5150051;27;8843;-75
2022/06/15 11:11:10;;;;;;;;;5.40;5.20;;;;;25.00;29.39;99839.41;5150067;27;8907;-73
2022/06/15 11:13:52;;;;;;;;;5.80;5.80;;;;;25.23;28.64;99840.81;5131866;27;8823;-71
2022/06/15 11:19:19;;;;;;;;;6.00;6.00;;;;;26.40;27.34;99829.47;5149993;27;8867;-74
2022/06/15 11:21:54;;;;;;;;;7.20;6.00;;;;;26.86;27.12;99825.75;5131440;27;8836;-75
2022/06/15 11:24:34;;;;;;;;;11.20;9.00;;;;;27.14;26.81;99826.66;5096555;27;8935;-72
2022/06/15 11:27:10;;;;;;;;;8.00;8.00;;;;;27.20;26.96;99819.09;5150004;27;8819;-72
2022/06/15 11:29:48;;;;;;;;;7.60;7.60;;;;;27.13;27.08;99816.91;5131589;27;8946;-72
2022/06/15 11:32:52;;;;;;;;;12.60;9.00;;;;;27.57;26.75;99811.31;5149511;27;8855;-74
2022/06/15 11:35:31;;;;;;;;;7.20;7.00;;;;;28.11;26.91;99813.06;5065594;28;8971;-73
2022/06/15 11:38:06;;;;;;;;;8.00;7.20;;;;;28.58;25.86;99814.28;5065557;28;8886;-72
2022/06/15 11:40:40;;;;;;;;;7.80;7.80;;;;;29.05;24.18;99805.56;5065326;28;8881;-72
2022/06/15 11:43:16;;;;;;;;;6.40;6.40;;;;;29.52;23.07;99806.56;5066292;28;8949;-74
2022/06/15 11:46:09;;;;;;;;;5.60;5.00;;;;;29.93;22.73;99810.66;5066138;28;8894;-71
2022/06/15 11:48:51;;;;;;;;;9.40;9.40;;;;;30.27;22.70;99806.19;5065962;28;8832;-71
2022/06/15 11:51:31;;;;;;;;;7.80;7.80;;;;;29.13;23.29;99809.44;5065301;28;8958;-72
2022/06/15 11:54:13;;;;;;;;;7.00;6.80;;;;;29.53;22.69;99801.09;5065408;28;8856;-70
2022/06/15 11:56:52;;;;;;;;;7.00;7.00;;;;;29.66;23.22;99805.50;5065068;28;8909;-72
2022/06/15 11:59:36;;;;;;;;;4.80;4.40;;;;;30.36;22.42;99806.47;5064673;28;8859;-70
2022/06/15 12:02:16;;;;;;;;;6.20;6.20;;;;;29.48;21.88;99803.25;5064955;28;8983;-69
2022/06/15 12:05:19;;;;;;;;;20.25;20.25;;;;;29.90;22.08;99800.13;5015492;28;8890;-72
2022/06/15 12:08:00;;;;;;;;;10.00;9.75;;;;;30.18;22.58;99800.69;5004716;28;1190900;-70
2022/06/15 12:10:40;;;;;;;;;10.60;10.60;;;;;29.59;21.81;99805.13;5103613;28;8877;-73
2022/06/15 12:13:20;;;;;;;;;7.80;7.80;;;;;29.61;22.88;99794.28;5108791;28;8873;-69
2022/06/15 12:15:54;;;;;;;;;5.80;5.80;;;;;30.51;21.34;99792.66;5108975;28;8846;-68
2022/06/15 12:18:45;;;;;;;;;8.00;8.00;;;;;30.11;21.07;99792.22;5074188;28;9070;-69